createdAt,value
2023-04-23T00:00:13.870Z,99.90
2023-04-23T00:02:44.819Z,99.90
2023-04-23T00:05:13.008Z,99.90
2023-04-23T00:07:40.706Z,99.90
2023-04-23T00:10:09.048Z,99.90
2023-04-23T00:12:36.062Z,99.90
2023-04-23T00:15:04.393Z,99.90
2023-04-23T00:17:31.388Z,99.90
2023-04-23T00:19:58.221Z,99.90
2023-04-23T00:22:25.050Z,99.90
2023-04-23T00:24:51.812Z,99.90
2023-04-23T00:27:18.763Z,99.90
2023-04-23T00:29:46.448Z,99.90
2023-04-23T00:32:14.553Z,99.90
2023-04-23T00:34:41.560Z,99.90
2023-04-23T00:37:08.950Z,99.90
2023-04-23T00:39:37.637Z,99.90
2023-04-23T00:42:11.554Z,99.90
2023-04-23T00:44:39.557Z,99.90
2023-04-23T00:47:07.895Z,99.90
2023-04-23T00:49:35.576Z,99.90
2023-04-23T00:52:02.958Z,99.90
2023-04-23T00:54:31.200Z,99.90
2023-04-23T00:56:59.406Z,99.90
2023-04-23T00:59:28.197Z,99.90
2023-04-23T01:01:56.666Z,99.90
2023-04-23T01:04:26.296Z,99.90
2023-04-23T01:06:53.528Z,99.90
2023-04-23T01:09:21.123Z,99.90
2023-04-23T01:11:50.929Z,99.90
2023-04-23T01:14:18.035Z,99.90
2023-04-23T01:16:45.645Z,99.90
2023-04-23T01:19:12.882Z,99.90
2023-04-23T01:21:42.925Z,99.90
2023-04-23T01:24:10.735Z,99.90
2023-04-23T01:26:39.073Z,99.90
2023-04-23T01:29:06.044Z,99.90
2023-04-23T01:31:33.138Z,99.90
2023-04-23T01:34:01.279Z,99.90
2023-04-23T01:36:28.621Z,99.90
2023-04-23T01:38:55.465Z,99.90
2023-04-23T01:41:22.794Z,99.90
2023-04-23T01:43:49.850Z,99.90
2023-04-23T01:46:16.974Z,99.90
2023-04-23T01:48:44.068Z,99.90
2023-04-23T01:51:11.873Z,99.90
2023-04-23T01:53:38.752Z,99.90
2023-04-23T01:56:06.555Z,99.90
2023-04-23T01:58:33.451Z,99.90
2023-04-23T02:01:00.168Z,99.90
2023-04-23T02:03:28.655Z,99.90
2023-04-23T02:05:55.725Z,99.90
2023-04-23T02:08:22.894Z,99.90
2023-04-23T02:10:49.750Z,99.90
2023-04-23T02:13:16.618Z,99.90
2023-04-23T02:15:43.550Z,99.90
2023-04-23T02:18:10.900Z,99.90
2023-04-23T02:20:40.741Z,99.90
2023-04-23T02:23:08.859Z,99.90
2023-04-23T02:25:38.362Z,99.90
2023-04-23T02:28:08.376Z,99.90
2023-04-23T02:30:35.589Z,99.90
2023-04-23T02:33:03.452Z,99.90
2023-04-23T02:35:31.453Z,99.90
2023-04-23T02:37:58.456Z,99.90
2023-04-23T02:40:25.527Z,99.90
2023-04-23T02:42:52.506Z,99.90
2023-04-23T02:45:19.364Z,99.90
2023-04-23T02:47:46.177Z,99.90
2023-04-23T02:50:13.086Z,99.90
2023-04-23T02:52:39.895Z,99.90
2023-04-23T02:55:07.303Z,99.90
2023-04-23T02:57:35.603Z,99.90
2023-04-23T03:00:06.478Z,99.90
2023-04-23T03:02:39.379Z,99.90
2023-04-23T03:05:07.485Z,99.90
2023-04-23T03:07:34.353Z,99.90
2023-04-23T03:10:05.132Z,99.90
2023-04-23T03:12:34.751Z,99.90
2023-04-23T03:15:05.099Z,99.90
2023-04-23T03:17:34.610Z,99.90
2023-04-23T03:20:01.986Z,99.90
2023-04-23T03:22:29.698Z,99.90
2023-04-23T03:24:56.375Z,99.90
2023-04-23T03:27:23.288Z,99.90
2023-04-23T03:29:50.110Z,99.90
2023-04-23T03:32:16.874Z,99.90
2023-04-23T03:34:43.917Z,99.90
2023-04-23T03:37:11.434Z,99.90
2023-04-23T03:39:39.246Z,99.90
2023-04-23T03:42:07.106Z,99.90
2023-04-23T03:44:34.342Z,99.90
2023-04-23T03:47:01.550Z,99.90
2023-04-23T03:49:28.310Z,99.90
2023-04-23T03:51:56.331Z,99.90
2023-04-23T03:54:25.854Z,99.90
2023-04-23T03:57:10.131Z,99.90
2023-04-23T03:59:45.165Z,99.90
2023-04-23T04:02:12.012Z,99.90
2023-04-23T04:04:39.101Z,99.90
2023-04-23T04:07:09.029Z,99.90
2023-04-23T04:09:39.610Z,99.90
2023-04-23T04:12:07.142Z,99.90
2023-04-23T04:14:34.616Z,99.90
2023-04-23T04:17:01.289Z,99.90
2023-04-23T04:19:28.075Z,99.90
2023-04-23T04:21:54.895Z,99.90
2023-04-23T04:24:23.769Z,99.90
2023-04-23T04:26:52.741Z,99.90
2023-04-23T04:29:21.279Z,99.90
2023-04-23T04:31:48.800Z,99.90
2023-04-23T04:34:15.827Z,99.90
2023-04-23T04:36:42.678Z,99.90
2023-04-23T04:39:09.754Z,99.90
2023-04-23T04:41:37.309Z,99.90
2023-04-23T04:44:04.332Z,99.90
2023-04-23T04:46:31.904Z,99.90
2023-04-23T04:48:58.934Z,99.90
2023-04-23T04:51:26.218Z,99.90
2023-04-23T04:53:53.386Z,99.90
2023-04-23T04:56:20.458Z,99.90
2023-04-23T04:58:47.282Z,99.90
2023-04-23T05:01:14.108Z,99.90
2023-04-23T05:03:41.262Z,99.90
2023-04-23T05:06:08.299Z,99.90
2023-04-23T05:08:35.283Z,99.90
2023-04-23T05:11:03.851Z,99.90
2023-04-23T05:13:30.812Z,99.90
2023-04-23T05:15:57.712Z,99.90
2023-04-23T05:18:24.786Z,99.90
2023-04-23T05:20:51.732Z,99.90
2023-04-23T05:23:18.970Z,99.90
2023-04-23T05:25:45.758Z,99.90
2023-04-23T05:28:12.613Z,99.90
2023-04-23T05:30:39.544Z,99.90
2023-04-23T05:33:06.795Z,99.90
2023-04-23T05:35:33.635Z,99.90
2023-04-23T05:38:01.503Z,99.90
2023-04-23T05:40:28.384Z,99.90
2023-04-23T05:42:55.360Z,99.90
2023-04-23T05:45:22.156Z,99.90
2023-04-23T05:47:48.893Z,99.90
2023-04-23T05:50:16.009Z,99.90
2023-04-23T05:52:42.968Z,99.90
2023-04-23T05:55:15.620Z,99.90
2023-04-23T05:57:42.383Z,99.90
2023-04-23T06:00:09.903Z,99.90
2023-04-23T06:02:40.560Z,99.90
2023-04-23T06:05:08.295Z,99.90
2023-04-23T06:07:36.238Z,99.90
2023-04-23T06:10:05.612Z,99.90
2023-04-23T06:12:32.542Z,99.90
2023-04-23T06:14:59.245Z,99.90
2023-04-23T06:17:26.036Z,99.90
2023-04-23T06:19:52.794Z,99.90
2023-04-23T06:22:19.586Z,99.90
2023-04-23T06:24:46.434Z,99.90
2023-04-23T06:27:13.544Z,99.90
2023-04-23T06:29:45.907Z,99.90
2023-04-23T06:32:13.391Z,99.90
2023-04-23T06:34:46.668Z,99.90
2023-04-23T06:37:16.867Z,99.90
2023-04-23T06:39:43.593Z,99.90
2023-04-23T06:42:10.348Z,99.90
2023-04-23T06:45:05.886Z,99.90
2023-04-23T06:47:33.227Z,99.90
2023-04-23T06:50:00.197Z,99.90
2023-04-23T06:52:27.374Z,99.90
2023-04-23T06:54:54.060Z,99.90
2023-04-23T06:57:21.893Z,99.90
2023-04-23T06:59:48.746Z,99.90
2023-04-23T07:02:17.109Z,99.90
2023-04-23T07:04:44.393Z,99.90
2023-04-23T07:07:12.056Z,99.90
2023-04-23T07:09:38.754Z,99.90
2023-04-23T07:12:05.686Z,99.90
2023-04-23T07:14:32.584Z,99.90
2023-04-23T07:16:59.483Z,99.90
2023-04-23T07:19:27.373Z,99.90
2023-04-23T07:21:54.151Z,99.90
2023-04-23T07:24:20.765Z,99.90
2023-04-23T07:26:47.477Z,99.90
2023-04-23T07:29:15.366Z,99.90
2023-04-23T07:31:42.234Z,99.90
2023-04-23T07:34:09.816Z,99.90
2023-04-23T07:36:36.763Z,99.90
2023-04-23T07:39:05.155Z,99.90
2023-04-23T07:41:32.650Z,99.90
2023-04-23T07:43:59.617Z,99.90
2023-04-23T07:46:26.551Z,99.90
2023-04-23T07:48:53.524Z,99.90
2023-04-23T07:51:22.398Z,99.90
2023-04-23T07:53:51.829Z,99.90
2023-04-23T07:56:18.693Z,99.90
2023-04-23T07:58:45.512Z,99.90
2023-04-23T08:01:12.309Z,99.90
2023-04-23T08:03:39.263Z,99.90
2023-04-23T08:06:06.429Z,99.90
2023-04-23T08:08:33.179Z,99.90
2023-04-23T08:11:00.290Z,99.90
2023-04-23T08:13:26.988Z,99.90
2023-04-23T08:15:53.789Z,99.90
2023-04-23T08:18:20.591Z,99.90
2023-04-23T08:20:47.296Z,99.90
2023-04-23T08:23:14.022Z,99.90
2023-04-23T08:25:40.753Z,99.90
2023-04-23T08:28:07.552Z,99.90
2023-04-23T08:30:34.366Z,99.90
2023-04-23T08:33:01.292Z,99.90
2023-04-23T08:35:28.060Z,99.90
2023-04-23T08:37:54.800Z,99.90
2023-04-23T08:40:21.573Z,99.90
2023-04-23T08:42:51.636Z,99.90
2023-04-23T08:45:19.113Z,99.90
2023-04-23T08:47:45.910Z,99.90
2023-04-23T08:50:17.881Z,99.90
2023-04-23T08:52:52.429Z,99.90
2023-04-23T08:55:20.519Z,99.90
2023-04-23T08:57:48.121Z,99.90
2023-04-23T09:00:16.831Z,99.90
2023-04-23T09:02:45.918Z,99.90
2023-04-23T09:05:13.612Z,99.90
2023-04-23T09:07:41.592Z,99.90
2023-04-23T09:10:11.293Z,99.90
2023-04-23T09:12:40.927Z,99.90
2023-04-23T09:15:12.703Z,99.90
2023-04-23T09:17:44.360Z,99.90
2023-04-23T09:20:12.697Z,99.90
2023-04-23T09:22:47.769Z,99.90
2023-04-23T09:25:18.229Z,99.90
2023-04-23T09:27:46.409Z,99.90
2023-04-23T09:30:14.785Z,99.90
2023-04-23T09:32:43.452Z,99.90
2023-04-23T09:35:15.247Z,99.90
2023-04-23T09:37:43.866Z,99.90
2023-04-23T09:40:14.148Z,99.90
2023-04-23T09:42:41.307Z,99.90
2023-04-23T09:45:12.738Z,99.90
2023-04-23T09:47:41.493Z,99.90
2023-04-23T09:50:10.643Z,99.90
2023-04-23T09:52:41.143Z,99.90
2023-04-23T09:55:08.591Z,99.90
2023-04-23T09:57:41.008Z,99.90
2023-04-23T10:00:20.784Z,99.90
2023-04-23T10:02:52.256Z,99.90
2023-04-23T10:05:24.818Z,99.90
2023-04-23T10:07:59.773Z,99.90
2023-04-23T10:10:26.738Z,99.90
2023-04-23T10:12:55.898Z,99.90
2023-04-23T10:15:27.303Z,99.90
2023-04-23T10:17:55.669Z,99.90
2023-04-23T10:20:23.580Z,99.90
2023-04-23T10:22:52.739Z,99.90
2023-04-23T10:25:21.178Z,99.90
2023-04-23T10:27:54.414Z,99.90
2023-04-23T10:30:22.632Z,99.90
2023-04-23T10:32:50.922Z,99.90
2023-04-23T10:35:18.564Z,99.90
2023-04-23T10:37:48.065Z,99.90
2023-04-23T10:40:21.989Z,99.90
2023-04-23T10:42:49.658Z,99.90
2023-04-23T10:47:49.099Z,99.90
2023-04-23T10:50:27.875Z,99.90
2023-04-23T10:52:56.953Z,99.90
2023-04-23T10:55:26.288Z,99.90
2023-04-23T10:58:04.674Z,99.90
2023-04-23T11:00:46.817Z,98.80
2023-04-23T11:03:37.301Z,99.60
2023-04-23T11:06:07.147Z,99.90
2023-04-23T11:08:37.524Z,99.90
2023-04-23T11:11:09.216Z,99.90
2023-04-23T11:13:35.989Z,99.90
2023-04-23T11:16:16.055Z,99.90
2023-04-23T11:18:59.647Z,99.90
2023-04-23T11:22:01.082Z,99.90
2023-04-23T11:24:33.926Z,99.90
2023-04-23T11:27:01.261Z,99.90
2023-04-23T11:29:28.728Z,99.90
2023-04-23T11:34:26.266Z,99.80
2023-04-23T11:36:57.472Z,99.20
2023-04-23T11:39:24.775Z,98.20
2023-04-23T11:41:52.412Z,98.60
2023-04-23T11:44:21.249Z,97.30
2023-04-23T11:46:49.641Z,97.30
2023-04-23T11:49:21.676Z,98.60
2023-04-23T11:51:48.709Z,98.80
2023-04-23T11:54:16.251Z,99.10
2023-04-23T11:56:43.623Z,99.40
2023-04-23T11:59:10.491Z,99.20
2023-04-23T12:01:44.165Z,98.60
2023-04-23T12:04:15.096Z,97.70
2023-04-23T12:06:44.405Z,97.80
2023-04-23T12:09:12.646Z,97.50
2023-04-23T12:11:44.061Z,97.60
2023-04-23T12:14:12.668Z,97.70
2023-04-23T12:16:45.032Z,97.90
2023-04-23T12:19:16.994Z,98.00
2023-04-23T12:21:55.803Z,97.40
2023-04-23T12:24:23.747Z,97.30
2023-04-23T12:26:55.979Z,94.80
2023-04-23T12:29:23.354Z,93.70
2023-04-23T12:31:52.441Z,89.60
2023-04-23T12:34:21.000Z,85.50
2023-04-23T12:36:50.481Z,88.00
2023-04-23T12:39:24.997Z,88.70
2023-04-23T12:42:05.658Z,87.00
2023-04-23T12:44:37.977Z,83.30
2023-04-23T12:47:11.277Z,83.70
2023-04-23T12:49:40.881Z,85.40
2023-04-23T12:52:08.490Z,85.40
2023-04-23T12:54:37.411Z,86.40
2023-04-23T12:57:05.901Z,86.30
2023-04-23T12:59:33.629Z,86.70
2023-04-23T13:02:04.599Z,85.40
2023-04-23T13:04:33.901Z,83.20
2023-04-23T13:07:01.425Z,80.60
2023-04-23T13:09:31.271Z,74.90
2023-04-23T13:11:59.826Z,74.50
2023-04-23T13:14:27.161Z,73.60
2023-04-23T13:16:54.415Z,73.90
2023-04-23T13:19:21.311Z,76.90
2023-04-23T13:21:48.094Z,79.30
2023-04-23T13:24:16.084Z,80.10
2023-04-23T13:26:43.116Z,78.50
2023-04-23T13:29:09.922Z,76.20
2023-04-23T13:31:37.147Z,75.80
2023-04-23T13:34:04.030Z,71.90
2023-04-23T13:36:30.875Z,68.90
2023-04-23T13:38:57.759Z,66.80
2023-04-23T13:41:24.645Z,66.10
2023-04-23T13:43:51.386Z,66.20
2023-04-23T13:46:19.713Z,66.70
2023-04-23T13:48:46.790Z,67.30
2023-04-23T13:51:30.680Z,68.60
2023-04-23T13:54:01.391Z,68.80
2023-04-23T13:56:30.829Z,69.20
2023-04-23T14:01:35.370Z,68.70
2023-04-23T14:04:04.632Z,68.80
2023-04-23T14:06:31.672Z,67.80
2023-04-23T14:08:58.723Z,65.50
2023-04-23T14:11:26.031Z,64.10
2023-04-23T14:13:52.962Z,64.30
2023-04-23T14:16:20.140Z,64.20
2023-04-23T14:18:47.035Z,64.80
2023-04-23T14:21:16.303Z,65.90
2023-04-23T14:23:50.926Z,66.50
2023-04-23T14:26:48.650Z,65.50
2023-04-23T14:29:24.129Z,65.30
2023-04-23T14:31:52.765Z,65.70
2023-04-23T14:34:19.777Z,64.30
2023-04-23T14:36:49.177Z,65.90
2023-04-23T14:39:16.411Z,65.00
2023-04-23T14:41:43.403Z,64.80
2023-04-23T14:44:10.387Z,65.40
2023-04-23T14:46:37.709Z,65.70
2023-04-23T14:49:04.743Z,66.40
2023-04-23T14:51:31.885Z,67.50
2023-04-23T14:53:59.262Z,67.70
2023-04-23T14:56:29.311Z,68.60
2023-04-23T14:58:56.349Z,70.20
2023-04-23T15:01:24.197Z,71.20
2023-04-23T15:03:53.470Z,71.60
2023-04-23T15:06:21.056Z,72.30
2023-04-23T15:08:48.603Z,72.50
2023-04-23T15:11:15.584Z,73.00
2023-04-23T15:13:49.728Z,74.00
2023-04-23T15:16:48.102Z,74.50
2023-04-23T15:19:19.821Z,75.20
2023-04-23T15:21:51.102Z,74.50
2023-04-23T15:24:18.151Z,75.40
2023-04-23T15:26:49.656Z,76.00
2023-04-23T15:29:16.559Z,76.90
2023-04-23T15:31:43.479Z,77.80
2023-04-23T15:34:11.910Z,77.50
2023-04-23T15:36:38.788Z,77.40
2023-04-23T15:39:07.243Z,77.80
2023-04-23T15:41:39.586Z,77.80
2023-04-23T15:44:11.719Z,78.70
2023-04-23T15:46:38.729Z,79.20
2023-04-23T15:49:05.635Z,79.10
2023-04-23T15:51:32.977Z,79.00
2023-04-23T15:54:01.977Z,79.70
2023-04-23T15:56:28.986Z,80.30
2023-04-23T15:58:55.719Z,81.20
2023-04-23T16:01:24.209Z,81.40
2023-04-23T16:04:08.461Z,82.80
2023-04-23T16:06:36.917Z,82.70
2023-04-23T16:09:06.827Z,83.40
2023-04-23T16:11:35.681Z,84.60
2023-04-23T16:14:03.257Z,85.20
2023-04-23T16:16:30.758Z,86.70
2023-04-23T16:18:57.878Z,91.40
2023-04-23T16:21:24.746Z,99.90
2023-04-23T16:23:51.488Z,99.90
2023-04-23T16:26:18.305Z,99.90
2023-04-23T16:28:51.937Z,99.90
2023-04-23T16:31:27.949Z,99.90
2023-04-23T16:33:54.774Z,99.90
2023-04-23T16:36:21.600Z,99.90
2023-04-23T16:38:49.446Z,99.90
2023-04-23T16:41:18.534Z,99.90
2023-04-23T16:43:47.318Z,99.90
2023-04-23T16:46:17.737Z,99.90
2023-04-23T16:48:45.212Z,99.90
2023-04-23T16:51:12.614Z,99.90
2023-04-23T16:53:39.494Z,99.90
2023-04-23T16:56:06.332Z,99.90
2023-04-23T16:58:33.032Z,99.90
2023-04-23T17:00:59.666Z,99.90
2023-04-23T17:03:26.843Z,99.90
2023-04-23T17:06:00.214Z,99.90
2023-04-23T17:08:28.621Z,99.90
2023-04-23T17:10:57.193Z,99.90
2023-04-23T17:13:23.877Z,99.90
2023-04-23T17:15:50.559Z,99.90
2023-04-23T17:18:17.513Z,99.90
2023-04-23T17:20:44.186Z,99.90
2023-04-23T17:23:10.852Z,99.90
2023-04-23T17:25:37.482Z,99.90
2023-04-23T17:28:04.750Z,99.90
2023-04-23T17:30:59.337Z,99.90
2023-04-23T17:33:26.493Z,99.90
2023-04-23T17:35:53.407Z,99.90
2023-04-23T17:38:20.718Z,99.90
2023-04-23T17:40:48.028Z,99.90
2023-04-23T17:43:14.740Z,99.90
2023-04-23T17:45:41.504Z,99.90
2023-04-23T17:48:08.415Z,99.90
2023-04-23T17:50:35.373Z,99.90
2023-04-23T17:53:02.083Z,99.90
2023-04-23T17:55:28.710Z,99.90
2023-04-23T17:57:55.716Z,99.90
2023-04-23T18:00:23.169Z,99.90
2023-04-23T18:02:49.966Z,99.90
2023-04-23T18:05:17.713Z,99.90
2023-04-23T18:07:44.585Z,99.90
2023-04-23T18:10:14.253Z,99.90
2023-04-23T18:12:40.993Z,99.90
2023-04-23T18:15:11.025Z,99.90
2023-04-23T18:17:38.075Z,99.90
2023-04-23T18:20:06.600Z,99.90
2023-04-23T18:22:33.350Z,99.90
2023-04-23T18:25:00.224Z,99.90
2023-04-23T18:27:27.185Z,99.90
2023-04-23T18:29:54.014Z,99.90
2023-04-23T18:32:33.631Z,99.90
2023-04-23T18:35:02.382Z,99.90
2023-04-23T18:37:33.291Z,99.90
2023-04-23T18:40:00.120Z,99.90
2023-04-23T18:42:26.707Z,99.90
2023-04-23T18:44:53.800Z,99.90
2023-04-23T18:47:24.727Z,99.90
2023-04-23T18:49:56.745Z,99.90
2023-04-23T18:52:23.481Z,99.90
2023-04-23T18:54:50.184Z,99.90
2023-04-23T18:57:16.787Z,99.90
2023-04-23T18:59:44.081Z,99.90
2023-04-23T19:04:38.764Z,99.90
2023-04-23T19:07:05.768Z,99.90
2023-04-23T19:09:32.474Z,99.90
2023-04-23T19:11:59.302Z,99.90
2023-04-23T19:14:26.153Z,99.90
2023-04-23T19:16:52.994Z,99.90
2023-04-23T19:19:19.847Z,99.90
2023-04-23T19:21:46.569Z,99.90
2023-04-23T19:24:13.258Z,99.90
2023-04-23T19:26:39.991Z,99.90
2023-04-23T19:29:07.834Z,99.90
2023-04-23T19:31:34.703Z,99.90
2023-04-23T19:34:01.705Z,99.90
2023-04-23T19:36:28.366Z,99.90
2023-04-23T19:38:55.460Z,99.90
2023-04-23T19:41:22.452Z,99.90
2023-04-23T19:43:49.543Z,99.90
2023-04-23T19:46:16.258Z,99.90
2023-04-23T19:48:43.034Z,99.90
2023-04-23T19:51:09.737Z,99.90
2023-04-23T19:53:36.687Z,99.90
2023-04-23T19:56:03.477Z,99.90
2023-04-23T19:58:30.392Z,99.90
2023-04-23T20:00:57.394Z,99.90
2023-04-23T20:03:24.305Z,99.90
2023-04-23T20:05:52.516Z,99.90
2023-04-23T20:08:26.244Z,99.90
2023-04-23T20:10:53.545Z,99.90
2023-04-23T20:13:20.781Z,99.90
2023-04-23T20:15:49.864Z,99.90
2023-04-23T20:18:17.890Z,99.90
2023-04-23T20:20:44.622Z,99.90
2023-04-23T20:23:11.355Z,99.90
2023-04-23T20:25:38.051Z,99.90
2023-04-23T20:28:05.093Z,99.90
2023-04-23T20:30:31.825Z,99.90
2023-04-23T20:32:58.569Z,99.90
2023-04-23T20:35:25.474Z,99.90
2023-04-23T20:37:54.449Z,99.90
2023-04-23T20:40:25.127Z,99.90
2023-04-23T20:42:52.794Z,99.90
2023-04-23T20:45:20.461Z,99.90
2023-04-23T20:47:48.262Z,99.90
2023-04-23T20:50:15.041Z,99.90
2023-04-23T20:52:41.724Z,99.90
2023-04-23T20:55:08.770Z,99.90
2023-04-23T20:57:36.841Z,99.90
2023-04-23T21:00:07.178Z,99.90
2023-04-23T21:02:35.993Z,99.90
2023-04-23T21:05:02.903Z,99.90
2023-04-23T21:07:30.634Z,99.90
2023-04-23T21:09:57.262Z,99.90
2023-04-23T21:12:24.091Z,99.90
2023-04-23T21:14:50.850Z,99.90
2023-04-23T21:17:21.949Z,99.90
2023-04-23T21:19:48.774Z,99.90
2023-04-23T21:22:15.521Z,99.90
2023-04-23T21:24:42.341Z,99.90
2023-04-23T21:27:15.630Z,99.90
2023-04-23T21:29:44.221Z,99.90
2023-04-23T21:32:11.357Z,99.90
2023-04-23T21:34:38.050Z,99.90
2023-04-23T21:37:04.694Z,99.90
2023-04-23T21:39:32.318Z,99.90
2023-04-23T21:41:59.168Z,99.90
2023-04-23T21:44:28.496Z,99.90
2023-04-23T21:46:55.442Z,99.90
2023-04-23T21:49:22.408Z,99.90
2023-04-23T21:51:50.189Z,99.90
2023-04-23T21:54:17.042Z,99.90
2023-04-23T21:56:43.859Z,99.90
2023-04-23T21:59:10.730Z,99.90
2023-04-23T22:01:37.599Z,99.90
2023-04-23T22:04:05.867Z,99.90
2023-04-23T22:06:34.440Z,99.90
2023-04-23T22:09:02.075Z,99.90
2023-04-23T22:11:30.558Z,99.90
2023-04-23T22:14:00.419Z,99.90
2023-04-23T22:16:29.000Z,99.90
2023-04-23T22:18:57.290Z,99.90
2023-04-23T22:21:24.214Z,99.90
2023-04-23T22:23:56.924Z,99.90
2023-04-23T22:26:24.679Z,99.90
2023-04-23T22:28:53.449Z,99.90
2023-04-23T22:31:23.907Z,99.90
2023-04-23T22:34:04.251Z,99.90
2023-04-23T22:36:32.053Z,99.90
2023-04-23T22:38:59.188Z,99.90
2023-04-23T22:41:26.554Z,99.90
2023-04-23T22:43:54.594Z,99.90
2023-04-23T22:46:25.193Z,99.90
2023-04-23T22:48:57.081Z,99.90
2023-04-23T22:51:25.158Z,99.90
2023-04-23T22:53:52.261Z,99.90
2023-04-23T22:56:24.481Z,99.90
2023-04-23T22:58:52.502Z,99.90
2023-04-23T23:01:20.461Z,99.90
2023-04-23T23:03:47.806Z,99.90
2023-04-23T23:06:18.021Z,99.90
2023-04-23T23:08:46.641Z,99.90
2023-04-23T23:11:14.488Z,99.90
2023-04-23T23:13:44.003Z,99.90
2023-04-23T23:16:14.430Z,99.90
2023-04-23T23:18:43.618Z,99.90
2023-04-23T23:21:11.195Z,99.90
2023-04-23T23:23:51.888Z,99.90
2023-04-23T23:26:20.591Z,99.90
2023-04-23T23:28:48.465Z,99.90
2023-04-23T23:31:18.240Z,99.90
2023-04-23T23:33:46.827Z,99.90
2023-04-23T23:36:16.100Z,99.90
2023-04-23T23:38:43.105Z,99.90
2023-04-23T23:41:10.320Z,99.90
2023-04-23T23:43:37.520Z,99.90
2023-04-23T23:46:04.670Z,99.90
2023-04-23T23:48:31.674Z,99.90
2023-04-23T23:50:58.750Z,99.90
2023-04-23T23:53:25.610Z,99.90
2023-04-23T23:55:52.410Z,99.90
2023-04-23T23:58:19.055Z,99.90
